sensor_id;sensor_type;location;lat;lon;timestamp;P1;durP1;ratioP1;P2;durP2;ratioP2
69594;SDS011;56800;52.142;5.364;2022-10-17T00:01:31;19.93;;;9.10;;
69594;SDS011;56800;52.142;5.364;2022-10-17T00:03:58;23.67;;;9.05;;
69594;SDS011;56800;52.142;5.364;2022-10-17T00:06:24;20.90;;;8.60;;
69594;SDS011;56800;52.142;5.364;2022-10-17T00:08:51;22.40;;;9.32;;
69594;SDS011;56800;52.142;5.364;2022-10-17T00:11:19;22.33;;;9.02;;
69594;SDS011;56800;52.142;5.364;2022-10-17T00:13:47;14.37;;;8.43;;
69594;SDS011;56800;52.142;5.364;2022-10-17T00:16:32;25.70;;;9.13;;
69594;SDS011;56800;52.142;5.364;2022-10-17T00:19:05;20.58;;;8.60;;
69594;SDS011;56800;52.142;5.364;2022-10-17T00:21:33;26.13;;;9.85;;
69594;SDS011;56800;52.142;5.364;2022-10-17T00:24:00;20.05;;;9.15;;
69594;SDS011;56800;52.142;5.364;2022-10-17T00:26:27;20.20;;;9.40;;
69594;SDS011;56800;52.142;5.364;2022-10-17T00:28:55;17.60;;;8.88;;
69594;SDS011;56800;52.142;5.364;2022-10-17T00:31:23;20.63;;;9.23;;
69594;SDS011;56800;52.142;5.364;2022-10-17T00:33:50;15.73;;;8.55;;
69594;SDS011;56800;52.142;5.364;2022-10-17T00:36:18;20.20;;;10.05;;
69594;SDS011;56800;52.142;5.364;2022-10-17T00:38:49;20.13;;;9.30;;
69594;SDS011;56800;52.142;5.364;2022-10-17T00:41:22;20.15;;;8.35;;
69594;SDS011;56800;52.142;5.364;2022-10-17T00:46:32;16.45;;;7.85;;
69594;SDS011;56800;52.142;5.364;2022-10-17T00:49:09;11.95;;;8.60;;
69594;SDS011;56800;52.142;5.364;2022-10-17T00:51:41;16.23;;;9.10;;
69594;SDS011;56800;52.142;5.364;2022-10-17T00:54:12;23.33;;;9.75;;
69594;SDS011;56800;52.142;5.364;2022-10-17T00:56:41;20.40;;;9.05;;
69594;SDS011;56800;52.142;5.364;2022-10-17T00:59:08;17.20;;;9.30;;
69594;SDS011;56800;52.142;5.364;2022-10-17T01:01:38;19.92;;;8.40;;
69594;SDS011;56800;52.142;5.364;2022-10-17T01:04:12;24.40;;;8.47;;
69594;SDS011;56800;52.142;5.364;2022-10-17T01:06:38;19.75;;;9.10;;
69594;SDS011;56800;52.142;5.364;2022-10-17T01:09:05;27.23;;;9.35;;
69594;SDS011;56800;52.142;5.364;2022-10-17T01:11:34;18.05;;;8.75;;
69594;SDS011;56800;52.142;5.364;2022-10-17T01:14:26;19.33;;;10.13;;
69594;SDS011;56800;52.142;5.364;2022-10-17T01:19:37;23.50;;;9.13;;
69594;SDS011;56800;52.142;5.364;2022-10-17T01:22:25;23.70;;;9.75;;
69594;SDS011;56800;52.142;5.364;2022-10-17T01:33:09;20.30;;;9.10;;
69594;SDS011;56800;52.142;5.364;2022-10-17T01:35:51;22.38;;;9.65;;
69594;SDS011;56800;52.142;5.364;2022-10-17T01:38:20;21.55;;;9.10;;
69594;SDS011;56800;52.142;5.364;2022-10-17T01:41:09;14.70;;;8.88;;
69594;SDS011;56800;52.142;5.364;2022-10-17T01:43:50;21.27;;;9.80;;
69594;SDS011;56800;52.142;5.364;2022-10-17T01:46:21;19.63;;;9.73;;
69594;SDS011;56800;52.142;5.364;2022-10-17T01:48:55;17.70;;;9.15;;
69594;SDS011;56800;52.142;5.364;2022-10-17T01:51:27;28.27;;;9.55;;
69594;SDS011;56800;52.142;5.364;2022-10-17T01:54:19;20.55;;;9.50;;
69594;SDS011;56800;52.142;5.364;2022-10-17T01:56:54;19.20;;;9.57;;
69594;SDS011;56800;52.142;5.364;2022-10-17T01:59:35;20.65;;;9.10;;
69594;SDS011;56800;52.142;5.364;2022-10-17T02:02:07;23.85;;;9.55;;
69594;SDS011;56800;52.142;5.364;2022-10-17T02:04:35;22.73;;;9.68;;
69594;SDS011;56800;52.142;5.364;2022-10-17T02:07:06;18.95;;;10.15;;
69594;SDS011;56800;52.142;5.364;2022-10-17T02:09:34;17.23;;;10.17;;
69594;SDS011;56800;52.142;5.364;2022-10-17T02:17:42;20.02;;;10.75;;
69594;SDS011;56800;52.142;5.364;2022-10-17T02:26:01;18.60;;;9.63;;
69594;SDS011;56800;52.142;5.364;2022-10-17T02:28:40;22.17;;;10.50;;
69594;SDS011;56800;52.142;5.364;2022-10-17T02:31:19;39.70;;;11.60;;
69594;SDS011;56800;52.142;5.364;2022-10-17T02:33:55;17.92;;;10.88;;
69594;SDS011;56800;52.142;5.364;2022-10-17T02:36:37;21.70;;;10.13;;
69594;SDS011;56800;52.142;5.364;2022-10-17T02:39:08;27.90;;;10.98;;
69594;SDS011;56800;52.142;5.364;2022-10-17T02:41:36;18.13;;;9.38;;
69594;SDS011;56800;52.142;5.364;2022-10-17T02:44:05;23.95;;;10.75;;
69594;SDS011;56800;52.142;5.364;2022-10-17T02:46:33;33.38;;;11.15;;
69594;SDS011;56800;52.142;5.364;2022-10-17T02:49:14;19.80;;;9.37;;
69594;SDS011;56800;52.142;5.364;2022-10-17T02:51:54;38.75;;;11.60;;
69594;SDS011;56800;52.142;5.364;2022-10-17T02:57:19;20.90;;;10.40;;
69594;SDS011;56800;52.142;5.364;2022-10-17T02:59:52;26.33;;;10.40;;
69594;SDS011;56800;52.142;5.364;2022-10-17T03:02:20;26.47;;;12.00;;
69594;SDS011;56800;52.142;5.364;2022-10-17T03:04:47;22.88;;;11.20;;
69594;SDS011;56800;52.142;5.364;2022-10-17T03:07:14;20.55;;;11.07;;
69594;SDS011;56800;52.142;5.364;2022-10-17T03:09:40;14.65;;;11.13;;
69594;SDS011;56800;52.142;5.364;2022-10-17T03:12:07;19.40;;;10.90;;
69594;SDS011;56800;52.142;5.364;2022-10-17T03:14:34;21.20;;;11.50;;
69594;SDS011;56800;52.142;5.364;2022-10-17T03:17:00;36.45;;;12.98;;
69594;SDS011;56800;52.142;5.364;2022-10-17T03:19:27;21.15;;;10.43;;
69594;SDS011;56800;52.142;5.364;2022-10-17T03:21:53;17.50;;;10.43;;
69594;SDS011;56800;52.142;5.364;2022-10-17T03:24:21;20.73;;;11.88;;
69594;SDS011;56800;52.142;5.364;2022-10-17T03:26:48;23.77;;;11.83;;
69594;SDS011;56800;52.142;5.364;2022-10-17T03:29:14;23.67;;;11.38;;
69594;SDS011;56800;52.142;5.364;2022-10-17T03:31:41;19.38;;;11.95;;
69594;SDS011;56800;52.142;5.364;2022-10-17T03:34:08;20.05;;;11.20;;
69594;SDS011;56800;52.142;5.364;2022-10-17T03:36:34;34.92;;;12.55;;
69594;SDS011;56800;52.142;5.364;2022-10-17T03:39:01;27.07;;;12.13;;
69594;SDS011;56800;52.142;5.364;2022-10-17T03:41:28;47.90;;;12.75;;
69594;SDS011;56800;52.142;5.364;2022-10-17T03:43:54;16.63;;;11.27;;
69594;SDS011;56800;52.142;5.364;2022-10-17T03:46:21;21.15;;;11.20;;
69594;SDS011;56800;52.142;5.364;2022-10-17T03:48:47;17.38;;;11.48;;
69594;SDS011;56800;52.142;5.364;2022-10-17T03:51:14;37.40;;;12.60;;
69594;SDS011;56800;52.142;5.364;2022-10-17T03:53:41;27.23;;;11.35;;
69594;SDS011;56800;52.142;5.364;2022-10-17T03:58:44;23.63;;;12.05;;
69594;SDS011;56800;52.142;5.364;2022-10-17T04:01:12;25.77;;;10.90;;
69594;SDS011;56800;52.142;5.364;2022-10-17T04:03:40;25.80;;;10.93;;
69594;SDS011;56800;52.142;5.364;2022-10-17T04:06:09;22.15;;;10.40;;
69594;SDS011;56800;52.142;5.364;2022-10-17T04:08:37;20.77;;;11.02;;
69594;SDS011;56800;52.142;5.364;2022-10-17T04:11:05;22.83;;;11.57;;
69594;SDS011;56800;52.142;5.364;2022-10-17T04:13:33;22.65;;;11.60;;
69594;SDS011;56800;52.142;5.364;2022-10-17T04:16:06;26.60;;;11.27;;
69594;SDS011;56800;52.142;5.364;2022-10-17T04:18:35;46.72;;;12.80;;
69594;SDS011;56800;52.142;5.364;2022-10-17T04:21:05;31.30;;;10.63;;
69594;SDS011;56800;52.142;5.364;2022-10-17T04:23:32;21.98;;;10.88;;
69594;SDS011;56800;52.142;5.364;2022-10-17T04:26:00;23.35;;;11.40;;
69594;SDS011;56800;52.142;5.364;2022-10-17T04:28:28;33.93;;;12.70;;
69594;SDS011;56800;52.142;5.364;2022-10-17T04:30:56;34.63;;;12.52;;
69594;SDS011;56800;52.142;5.364;2022-10-17T04:33:34;21.73;;;11.45;;
69594;SDS011;56800;52.142;5.364;2022-10-17T04:36:02;26.30;;;11.93;;
69594;SDS011;56800;52.142;5.364;2022-10-17T04:38:31;37.85;;;13.10;;
69594;SDS011;56800;52.142;5.364;2022-10-17T04:40:59;24.93;;;10.70;;
69594;SDS011;56800;52.142;5.364;2022-10-17T04:43:32;37.35;;;11.93;;
69594;SDS011;56800;52.142;5.364;2022-10-17T04:46:00;25.50;;;10.77;;
69594;SDS011;56800;52.142;5.364;2022-10-17T04:48:29;18.65;;;10.85;;
69594;SDS011;56800;52.142;5.364;2022-10-17T04:50:56;25.90;;;10.18;;
69594;SDS011;56800;52.142;5.364;2022-10-17T04:53:29;19.77;;;11.27;;
69594;SDS011;56800;52.142;5.364;2022-10-17T04:55:57;24.20;;;11.38;;
69594;SDS011;56800;52.142;5.364;2022-10-17T04:58:23;24.17;;;11.52;;
69594;SDS011;56800;52.142;5.364;2022-10-17T05:00:50;16.95;;;10.85;;
69594;SDS011;56800;52.142;5.364;2022-10-17T05:03:17;19.15;;;10.75;;
69594;SDS011;56800;52.142;5.364;2022-10-17T05:05:43;32.77;;;11.23;;
69594;SDS011;56800;52.142;5.364;2022-10-17T05:08:10;18.55;;;10.85;;
69594;SDS011;56800;52.142;5.364;2022-10-17T05:10:39;18.85;;;10.90;;
69594;SDS011;56800;52.142;5.364;2022-10-17T05:13:07;25.65;;;10.63;;
69594;SDS011;56800;52.142;5.364;2022-10-17T05:15:35;22.10;;;10.75;;
69594;SDS011;56800;52.142;5.364;2022-10-17T05:18:02;21.43;;;10.27;;
69594;SDS011;56800;52.142;5.364;2022-10-17T05:20:30;22.58;;;10.27;;
69594;SDS011;56800;52.142;5.364;2022-10-17T05:22:57;19.77;;;10.18;;
69594;SDS011;56800;52.142;5.364;2022-10-17T05:25:24;22.75;;;9.73;;
69594;SDS011;56800;52.142;5.364;2022-10-17T05:27:52;21.33;;;10.77;;
69594;SDS011;56800;52.142;5.364;2022-10-17T05:30:19;25.13;;;11.00;;
69594;SDS011;56800;52.142;5.364;2022-10-17T05:32:46;31.50;;;10.88;;
69594;SDS011;56800;52.142;5.364;2022-10-17T05:35:12;26.63;;;11.40;;
69594;SDS011;56800;52.142;5.364;2022-10-17T05:37:39;17.38;;;10.40;;
69594;SDS011;56800;52.142;5.364;2022-10-17T05:40:05;16.60;;;10.45;;
69594;SDS011;56800;52.142;5.364;2022-10-17T05:42:33;22.20;;;10.63;;
69594;SDS011;56800;52.142;5.364;2022-10-17T05:44:59;18.98;;;10.23;;
69594;SDS011;56800;52.142;5.364;2022-10-17T05:47:26;22.60;;;11.60;;
69594;SDS011;56800;52.142;5.364;2022-10-17T05:49:53;22.15;;;10.82;;
69594;SDS011;56800;52.142;5.364;2022-10-17T05:52:20;18.52;;;9.63;;
69594;SDS011;56800;52.142;5.364;2022-10-17T05:54:46;19.93;;;9.33;;
69594;SDS011;56800;52.142;5.364;2022-10-17T05:57:13;40.15;;;11.93;;
69594;SDS011;56800;52.142;5.364;2022-10-17T05:59:39;21.73;;;9.88;;
69594;SDS011;56800;52.142;5.364;2022-10-17T06:02:07;26.73;;;9.95;;
69594;SDS011;56800;52.142;5.364;2022-10-17T06:04:36;18.17;;;9.35;;
69594;SDS011;56800;52.142;5.364;2022-10-17T06:07:03;19.53;;;10.23;;
69594;SDS011;56800;52.142;5.364;2022-10-17T06:09:30;18.77;;;9.82;;
69594;SDS011;56800;52.142;5.364;2022-10-17T06:11:56;21.23;;;9.93;;
69594;SDS011;56800;52.142;5.364;2022-10-17T06:14:23;17.30;;;9.10;;
69594;SDS011;56800;52.142;5.364;2022-10-17T06:16:49;23.52;;;10.48;;
69594;SDS011;56800;52.142;5.364;2022-10-17T06:19:16;23.80;;;9.90;;
69594;SDS011;56800;52.142;5.364;2022-10-17T06:21:43;45.13;;;10.82;;
69594;SDS011;56800;52.142;5.364;2022-10-17T06:24:09;16.73;;;10.90;;
69594;SDS011;56800;52.142;5.364;2022-10-17T06:26:36;16.52;;;9.27;;
69594;SDS011;56800;52.142;5.364;2022-10-17T06:29:03;19.05;;;9.45;;
69594;SDS011;56800;52.142;5.364;2022-10-17T06:31:29;25.03;;;10.20;;
69594;SDS011;56800;52.142;5.364;2022-10-17T06:33:56;15.73;;;9.52;;
69594;SDS011;56800;52.142;5.364;2022-10-17T06:36:22;19.88;;;10.52;;
69594;SDS011;56800;52.142;5.364;2022-10-17T06:38:49;22.33;;;9.95;;
69594;SDS011;56800;52.142;5.364;2022-10-17T06:41:16;17.52;;;10.00;;
69594;SDS011;56800;52.142;5.364;2022-10-17T06:43:44;14.57;;;9.70;;
69594;SDS011;56800;52.142;5.364;2022-10-17T06:46:12;15.20;;;10.30;;
69594;SDS011;56800;52.142;5.364;2022-10-17T06:48:40;16.75;;;10.32;;
69594;SDS011;56800;52.142;5.364;2022-10-17T06:51:07;16.83;;;10.68;;
69594;SDS011;56800;52.142;5.364;2022-10-17T06:53:37;25.10;;;10.18;;
69594;SDS011;56800;52.142;5.364;2022-10-17T06:56:05;15.37;;;9.80;;
69594;SDS011;56800;52.142;5.364;2022-10-17T06:58:34;22.60;;;9.80;;
69594;SDS011;56800;52.142;5.364;2022-10-17T07:01:05;20.13;;;9.95;;
69594;SDS011;56800;52.142;5.364;2022-10-17T07:03:34;14.95;;;9.15;;
69594;SDS011;56800;52.142;5.364;2022-10-17T07:06:01;15.38;;;10.38;;
69594;SDS011;56800;52.142;5.364;2022-10-17T07:08:28;15.37;;;9.57;;
69594;SDS011;56800;52.142;5.364;2022-10-17T07:10:55;21.40;;;10.43;;
69594;SDS011;56800;52.142;5.364;2022-10-17T07:13:22;17.73;;;9.80;;
69594;SDS011;56800;52.142;5.364;2022-10-17T07:15:49;22.00;;;10.30;;
69594;SDS011;56800;52.142;5.364;2022-10-17T07:18:16;23.23;;;11.00;;
69594;SDS011;56800;52.142;5.364;2022-10-17T07:20:42;20.50;;;10.10;;
69594;SDS011;56800;52.142;5.364;2022-10-17T07:23:09;20.80;;;10.27;;
69594;SDS011;56800;52.142;5.364;2022-10-17T07:25:35;16.13;;;9.40;;
69594;SDS011;56800;52.142;5.364;2022-10-17T07:28:05;16.73;;;9.18;;
69594;SDS011;56800;52.142;5.364;2022-10-17T07:30:32;27.65;;;9.50;;
69594;SDS011;56800;52.142;5.364;2022-10-17T07:32:58;21.30;;;9.60;;
69594;SDS011;56800;52.142;5.364;2022-10-17T07:35:25;21.83;;;10.32;;
69594;SDS011;56800;52.142;5.364;2022-10-17T07:37:52;17.38;;;9.75;;
69594;SDS011;56800;52.142;5.364;2022-10-17T07:40:18;14.13;;;9.23;;
69594;SDS011;56800;52.142;5.364;2022-10-17T07:42:45;16.92;;;9.80;;
69594;SDS011;56800;52.142;5.364;2022-10-17T07:45:11;19.93;;;9.87;;
69594;SDS011;56800;52.142;5.364;2022-10-17T07:47:38;16.27;;;9.35;;
69594;SDS011;56800;52.142;5.364;2022-10-17T07:50:05;17.17;;;8.90;;
69594;SDS011;56800;52.142;5.364;2022-10-17T07:52:32;15.38;;;9.05;;
69594;SDS011;56800;52.142;5.364;2022-10-17T07:54:59;13.40;;;8.88;;
69594;SDS011;56800;52.142;5.364;2022-10-17T07:57:25;12.63;;;8.70;;
69594;SDS011;56800;52.142;5.364;2022-10-17T07:59:52;15.27;;;8.60;;
69594;SDS011;56800;52.142;5.364;2022-10-17T08:02:21;15.20;;;8.80;;
69594;SDS011;56800;52.142;5.364;2022-10-17T08:04:49;16.25;;;8.60;;
69594;SDS011;56800;52.142;5.364;2022-10-17T08:07:16;15.35;;;8.20;;
69594;SDS011;56800;52.142;5.364;2022-10-17T08:09:49;12.77;;;8.33;;
69594;SDS011;56800;52.142;5.364;2022-10-17T08:12:16;12.40;;;7.60;;
69594;SDS011;56800;52.142;5.364;2022-10-17T08:14:43;16.98;;;8.07;;
69594;SDS011;56800;52.142;5.364;2022-10-17T08:17:09;12.98;;;8.38;;
69594;SDS011;56800;52.142;5.364;2022-10-17T08:19:39;18.30;;;8.30;;
69594;SDS011;56800;52.142;5.364;2022-10-17T08:22:06;16.13;;;8.67;;
69594;SDS011;56800;52.142;5.364;2022-10-17T08:24:33;15.63;;;8.50;;
69594;SDS011;56800;52.142;5.364;2022-10-17T08:27:00;17.70;;;8.38;;
69594;SDS011;56800;52.142;5.364;2022-10-17T08:29:27;15.10;;;8.38;;
69594;SDS011;56800;52.142;5.364;2022-10-17T08:31:53;23.25;;;8.32;;
69594;SDS011;56800;52.142;5.364;2022-10-17T08:34:27;15.60;;;8.63;;
69594;SDS011;56800;52.142;5.364;2022-10-17T08:36:53;17.98;;;9.00;;
69594;SDS011;56800;52.142;5.364;2022-10-17T08:39:20;15.57;;;9.27;;
69594;SDS011;56800;52.142;5.364;2022-10-17T08:44:31;24.52;;;9.43;;
69594;SDS011;56800;52.142;5.364;2022-10-17T08:47:33;16.10;;;9.57;;
69594;SDS011;56800;52.142;5.364;2022-10-17T08:50:03;15.38;;;8.75;;
69594;SDS011;56800;52.142;5.364;2022-10-17T08:55:03;15.02;;;9.02;;
69594;SDS011;56800;52.142;5.364;2022-10-17T08:57:39;18.20;;;8.07;;
69594;SDS011;56800;52.142;5.364;2022-10-17T09:00:11;18.23;;;9.13;;
69594;SDS011;56800;52.142;5.364;2022-10-17T09:03:07;15.90;;;9.20;;
69594;SDS011;56800;52.142;5.364;2022-10-17T09:05:51;17.83;;;8.95;;
69594;SDS011;56800;52.142;5.364;2022-10-17T09:08:29;23.95;;;9.35;;
69594;SDS011;56800;52.142;5.364;2022-10-17T09:14:19;102.87;;;10.33;;
69594;SDS011;56800;52.142;5.364;2022-10-17T09:19:53;19.42;;;9.10;;
69594;SDS011;56800;52.142;5.364;2022-10-17T09:22:23;18.40;;;9.57;;
69594;SDS011;56800;52.142;5.364;2022-10-17T09:24:55;14.82;;;8.27;;
69594;SDS011;56800;52.142;5.364;2022-10-17T09:27:39;19.13;;;9.13;;
69594;SDS011;56800;52.142;5.364;2022-10-17T09:30:28;14.93;;;9.13;;
69594;SDS011;56800;52.142;5.364;2022-10-17T09:33:18;16.90;;;8.73;;
69594;SDS011;56800;52.142;5.364;2022-10-17T09:36:01;19.33;;;10.15;;
69594;SDS011;56800;52.142;5.364;2022-10-17T09:38:33;18.23;;;9.45;;
69594;SDS011;56800;52.142;5.364;2022-10-17T09:41:04;18.17;;;9.90;;
69594;SDS011;56800;52.142;5.364;2022-10-17T09:43:56;16.88;;;9.50;;
69594;SDS011;56800;52.142;5.364;2022-10-17T09:46:37;18.00;;;9.70;;
69594;SDS011;56800;52.142;5.364;2022-10-17T09:49:05;17.40;;;9.73;;
69594;SDS011;56800;52.142;5.364;2022-10-17T09:51:42;19.55;;;9.25;;
69594;SDS011;56800;52.142;5.364;2022-10-17T09:54:19;12.87;;;8.13;;
69594;SDS011;56800;52.142;5.364;2022-10-17T09:57:00;17.15;;;9.27;;
69594;SDS011;56800;52.142;5.364;2022-10-17T09:59:33;15.77;;;9.40;;
69594;SDS011;56800;52.142;5.364;2022-10-17T10:04:59;15.93;;;8.85;;
69594;SDS011;56800;52.142;5.364;2022-10-17T10:07:33;16.33;;;8.80;;
69594;SDS011;56800;52.142;5.364;2022-10-17T10:10:03;17.92;;;9.10;;
69594;SDS011;56800;52.142;5.364;2022-10-17T10:12:34;15.68;;;8.90;;
69594;SDS011;56800;52.142;5.364;2022-10-17T10:15:29;16.00;;;8.50;;
69594;SDS011;56800;52.142;5.364;2022-10-17T10:18:00;17.25;;;8.82;;
69594;SDS011;56800;52.142;5.364;2022-10-17T10:20:29;17.73;;;9.00;;
69594;SDS011;56800;52.142;5.364;2022-10-17T10:23:18;12.15;;;8.70;;
69594;SDS011;56800;52.142;5.364;2022-10-17T10:25:54;14.90;;;8.25;;
69594;SDS011;56800;52.142;5.364;2022-10-17T10:28:24;22.00;;;8.50;;
69594;SDS011;56800;52.142;5.364;2022-10-17T10:30:53;14.93;;;8.18;;
69594;SDS011;56800;52.142;5.364;2022-10-17T10:33:22;11.87;;;8.30;;
69594;SDS011;56800;52.142;5.364;2022-10-17T10:35:59;13.65;;;8.10;;
69594;SDS011;56800;52.142;5.364;2022-10-17T10:38:29;14.77;;;8.30;;
69594;SDS011;56800;52.142;5.364;2022-10-17T10:41:01;11.90;;;8.90;;
69594;SDS011;56800;52.142;5.364;2022-10-17T10:46:17;12.17;;;8.50;;
69594;SDS011;56800;52.142;5.364;2022-10-17T10:48:50;11.68;;;7.45;;
69594;SDS011;56800;52.142;5.364;2022-10-17T10:51:26;12.80;;;8.32;;
69594;SDS011;56800;52.142;5.364;2022-10-17T10:56:36;9.90;;;8.07;;
69594;SDS011;56800;52.142;5.364;2022-10-17T10:59:14;9.00;;;6.97;;
69594;SDS011;56800;52.142;5.364;2022-10-17T11:04:53;8.75;;;6.35;;
69594;SDS011;56800;52.142;5.364;2022-10-17T11:07:41;13.20;;;6.57;;
69594;SDS011;56800;52.142;5.364;2022-10-17T11:10:20;9.52;;;6.90;;
69594;SDS011;56800;52.142;5.364;2022-10-17T11:12:56;10.53;;;7.60;;
69594;SDS011;56800;52.142;5.364;2022-10-17T11:15:46;9.38;;;6.65;;
69594;SDS011;56800;52.142;5.364;2022-10-17T11:18:21;9.40;;;6.97;;
69594;SDS011;56800;52.142;5.364;2022-10-17T11:21:01;13.80;;;8.30;;
69594;SDS011;56800;52.142;5.364;2022-10-17T11:23:55;20.00;;;8.73;;
69594;SDS011;56800;52.142;5.364;2022-10-17T11:26:36;10.07;;;7.10;;
69594;SDS011;56800;52.142;5.364;2022-10-17T11:29:08;12.48;;;7.53;;
69594;SDS011;56800;52.142;5.364;2022-10-17T11:31:38;11.45;;;7.72;;
69594;SDS011;56800;52.142;5.364;2022-10-17T11:34:11;12.35;;;7.90;;
69594;SDS011;56800;52.142;5.364;2022-10-17T11:36:45;11.68;;;7.78;;
69594;SDS011;56800;52.142;5.364;2022-10-17T11:39:17;15.07;;;7.77;;
69594;SDS011;56800;52.142;5.364;2022-10-17T11:42:08;12.93;;;7.55;;
69594;SDS011;56800;52.142;5.364;2022-10-17T11:44:46;10.50;;;7.95;;
69594;SDS011;56800;52.142;5.364;2022-10-17T11:49:46;13.63;;;8.13;;
69594;SDS011;56800;52.142;5.364;2022-10-17T11:55:23;10.80;;;7.47;;
69594;SDS011;56800;52.142;5.364;2022-10-17T11:58:00;10.93;;;7.32;;
69594;SDS011;56800;52.142;5.364;2022-10-17T12:00:55;11.02;;;7.25;;
69594;SDS011;56800;52.142;5.364;2022-10-17T12:06:33;13.23;;;8.17;;
69594;SDS011;56800;52.142;5.364;2022-10-17T12:11:53;13.25;;;8.90;;
69594;SDS011;56800;52.142;5.364;2022-10-17T12:14:35;26.58;;;9.55;;
69594;SDS011;56800;52.142;5.364;2022-10-17T12:17:24;12.52;;;8.50;;
69594;SDS011;56800;52.142;5.364;2022-10-17T12:22:46;11.75;;;8.25;;
69594;SDS011;56800;52.142;5.364;2022-10-17T12:25:37;11.85;;;8.27;;
69594;SDS011;56800;52.142;5.364;2022-10-17T12:28:12;12.48;;;8.23;;
69594;SDS011;56800;52.142;5.364;2022-10-17T12:33:19;9.93;;;7.13;;
69594;SDS011;56800;52.142;5.364;2022-10-17T12:35:49;10.85;;;7.20;;
69594;SDS011;56800;52.142;5.364;2022-10-17T12:51:03;9.25;;;5.70;;
69594;SDS011;56800;52.142;5.364;2022-10-17T12:56:44;7.97;;;5.05;;
69594;SDS011;56800;52.142;5.364;2022-10-17T13:01:43;7.07;;;4.25;;
69594;SDS011;56800;52.142;5.364;2022-10-17T13:04:13;8.02;;;4.45;;
69594;SDS011;56800;52.142;5.364;2022-10-17T13:06:47;9.45;;;4.28;;
69594;SDS011;56800;52.142;5.364;2022-10-17T13:09:29;10.65;;;4.07;;
69594;SDS011;56800;52.142;5.364;2022-10-17T13:12:14;5.77;;;3.80;;
69594;SDS011;56800;52.142;5.364;2022-10-17T13:14:45;10.48;;;4.60;;
69594;SDS011;56800;52.142;5.364;2022-10-17T13:17:26;8.38;;;4.68;;
69594;SDS011;56800;52.142;5.364;2022-10-17T13:19:56;9.32;;;5.30;;
69594;SDS011;56800;52.142;5.364;2022-10-17T13:22:24;12.05;;;5.10;;
69594;SDS011;56800;52.142;5.364;2022-10-17T13:25:04;6.10;;;4.50;;
69594;SDS011;56800;52.142;5.364;2022-10-17T13:27:34;11.68;;;4.72;;
69594;SDS011;56800;52.142;5.364;2022-10-17T13:30:16;7.88;;;5.10;;
69594;SDS011;56800;52.142;5.364;2022-10-17T13:32:45;9.60;;;4.88;;
69594;SDS011;56800;52.142;5.364;2022-10-17T13:35:13;9.93;;;5.15;;
69594;SDS011;56800;52.142;5.364;2022-10-17T13:37:49;10.23;;;5.97;;
69594;SDS011;56800;52.142;5.364;2022-10-17T13:40:20;6.82;;;5.22;;
69594;SDS011;56800;52.142;5.364;2022-10-17T13:43:14;6.85;;;5.13;;
69594;SDS011;56800;52.142;5.364;2022-10-17T13:45:47;8.93;;;5.30;;
69594;SDS011;56800;52.142;5.364;2022-10-17T13:48:22;9.73;;;5.35;;
69594;SDS011;56800;52.142;5.364;2022-10-17T13:50:55;6.17;;;5.40;;
69594;SDS011;56800;52.142;5.364;2022-10-17T13:53:32;14.88;;;6.45;;
69594;SDS011;56800;52.142;5.364;2022-10-17T13:58:58;11.85;;;6.60;;
69594;SDS011;56800;52.142;5.364;2022-10-17T14:01:28;11.23;;;6.95;;
69594;SDS011;56800;52.142;5.364;2022-10-17T14:03:56;12.10;;;6.70;;
69594;SDS011;56800;52.142;5.364;2022-10-17T14:06:36;8.98;;;6.63;;
69594;SDS011;56800;52.142;5.364;2022-10-17T14:09:31;11.70;;;7.55;;
69594;SDS011;56800;52.142;5.364;2022-10-17T14:12:02;13.65;;;7.38;;
69594;SDS011;56800;52.142;5.364;2022-10-17T14:14:36;11.90;;;7.63;;
69594;SDS011;56800;52.142;5.364;2022-10-17T14:17:25;12.47;;;8.67;;
69594;SDS011;56800;52.142;5.364;2022-10-17T14:19:55;14.07;;;7.43;;
69594;SDS011;56800;52.142;5.364;2022-10-17T14:22:48;15.35;;;7.90;;
69594;SDS011;56800;52.142;5.364;2022-10-17T14:25:36;14.07;;;8.77;;
69594;SDS011;56800;52.142;5.364;2022-10-17T14:28:12;13.10;;;8.30;;
69594;SDS011;56800;52.142;5.364;2022-10-17T14:30:44;11.53;;;8.07;;
69594;SDS011;56800;52.142;5.364;2022-10-17T14:33:29;13.10;;;9.10;;
69594;SDS011;56800;52.142;5.364;2022-10-17T14:35:57;13.38;;;8.88;;
69594;SDS011;56800;52.142;5.364;2022-10-17T14:38:26;10.13;;;8.15;;
69594;SDS011;56800;52.142;5.364;2022-10-17T14:40:55;13.50;;;8.85;;
69594;SDS011;56800;52.142;5.364;2022-10-17T14:43:50;13.20;;;8.47;;
69594;SDS011;56800;52.142;5.364;2022-10-17T14:46:18;14.43;;;8.70;;
69594;SDS011;56800;52.142;5.364;2022-10-17T14:48:44;11.65;;;8.20;;
69594;SDS011;56800;52.142;5.364;2022-10-17T14:51:17;12.45;;;8.65;;
69594;SDS011;56800;52.142;5.364;2022-10-17T14:56:40;16.20;;;8.50;;
69594;SDS011;56800;52.142;5.364;2022-10-17T14:59:08;14.50;;;7.55;;
69594;SDS011;56800;52.142;5.364;2022-10-17T15:01:50;11.75;;;8.10;;
69594;SDS011;56800;52.142;5.364;2022-10-17T15:04:17;15.23;;;8.02;;
69594;SDS011;56800;52.142;5.364;2022-10-17T15:06:43;11.02;;;7.95;;
69594;SDS011;56800;52.142;5.364;2022-10-17T15:09:10;12.87;;;8.13;;
69594;SDS011;56800;52.142;5.364;2022-10-17T15:11:37;13.93;;;7.85;;
69594;SDS011;56800;52.142;5.364;2022-10-17T15:14:04;14.18;;;7.93;;
69594;SDS011;56800;52.142;5.364;2022-10-17T15:16:31;11.07;;;7.82;;
69594;SDS011;56800;52.142;5.364;2022-10-17T15:18:59;11.02;;;7.13;;
69594;SDS011;56800;52.142;5.364;2022-10-17T15:21:26;13.60;;;7.23;;
69594;SDS011;56800;52.142;5.364;2022-10-17T15:24:05;9.85;;;6.63;;
69594;SDS011;56800;52.142;5.364;2022-10-17T15:26:32;12.05;;;8.73;;
69594;SDS011;56800;52.142;5.364;2022-10-17T15:28:59;12.35;;;6.93;;
69594;SDS011;56800;52.142;5.364;2022-10-17T15:31:27;12.80;;;6.68;;
69594;SDS011;56800;52.142;5.364;2022-10-17T15:33:56;11.70;;;7.00;;
69594;SDS011;56800;52.142;5.364;2022-10-17T15:38:58;13.70;;;6.82;;
69594;SDS011;56800;52.142;5.364;2022-10-17T15:41:26;10.38;;;6.93;;
69594;SDS011;56800;52.142;5.364;2022-10-17T15:43:54;12.68;;;6.38;;
69594;SDS011;56800;52.142;5.364;2022-10-17T15:46:25;14.23;;;6.33;;
69594;SDS011;56800;52.142;5.364;2022-10-17T15:48:54;14.48;;;7.15;;
69594;SDS011;56800;52.142;5.364;2022-10-17T15:51:22;12.68;;;6.65;;
69594;SDS011;56800;52.142;5.364;2022-10-17T15:53:49;11.68;;;6.55;;
69594;SDS011;56800;52.142;5.364;2022-10-17T15:56:20;11.93;;;6.75;;
69594;SDS011;56800;52.142;5.364;2022-10-17T15:58:49;13.90;;;6.60;;
69594;SDS011;56800;52.142;5.364;2022-10-17T16:01:19;12.40;;;6.65;;
69594;SDS011;56800;52.142;5.364;2022-10-17T16:03:51;8.80;;;6.22;;
69594;SDS011;56800;52.142;5.364;2022-10-17T16:06:18;11.50;;;6.72;;
69594;SDS011;56800;52.142;5.364;2022-10-17T16:08:46;8.77;;;6.28;;
69594;SDS011;56800;52.142;5.364;2022-10-17T16:11:15;11.50;;;5.90;;
69594;SDS011;56800;52.142;5.364;2022-10-17T16:13:50;11.95;;;6.15;;
69594;SDS011;56800;52.142;5.364;2022-10-17T16:16:18;12.27;;;6.68;;
69594;SDS011;56800;52.142;5.364;2022-10-17T16:18:47;14.52;;;7.15;;
69594;SDS011;56800;52.142;5.364;2022-10-17T16:21:14;12.13;;;6.65;;
69594;SDS011;56800;52.142;5.364;2022-10-17T16:23:42;15.73;;;6.70;;
69594;SDS011;56800;52.142;5.364;2022-10-17T16:26:09;9.90;;;6.15;;
69594;SDS011;56800;52.142;5.364;2022-10-17T16:28:39;12.88;;;6.63;;
69594;SDS011;56800;52.142;5.364;2022-10-17T16:33:48;10.43;;;5.93;;
69594;SDS011;56800;52.142;5.364;2022-10-17T16:36:16;15.33;;;6.80;;